createdAt,value
2023-05-24T00:00:25.045Z,15.45
2023-05-24T00:05:31.585Z,15.38
2023-05-24T00:10:34.775Z,15.43
2023-05-24T00:15:37.872Z,15.47
2023-05-24T00:20:41.369Z,15.41
2023-05-24T00:25:47.747Z,15.38
2023-05-24T00:30:51.630Z,15.25
2023-05-24T00:35:58.637Z,15.20
2023-05-24T00:41:01.888Z,15.27
2023-05-24T00:46:18.467Z,15.27
2023-05-24T00:51:21.596Z,15.18
2023-05-24T00:56:24.740Z,15.45
2023-05-24T01:01:31.414Z,15.52
2023-05-24T01:06:50.540Z,15.68
2023-05-24T01:12:05.831Z,15.71
2023-05-24T01:17:27.860Z,15.69
2023-05-24T01:22:33.625Z,15.62
2023-05-24T01:27:38.809Z,15.49
2023-05-24T01:32:42.319Z,15.50
2023-05-24T01:37:45.434Z,15.45
2023-05-24T01:42:57.003Z,15.46
2023-05-24T01:48:00.070Z,15.54
2023-05-24T01:53:07.539Z,15.37
2023-05-24T01:58:11.368Z,15.46
2023-05-24T02:03:18.748Z,15.38
2023-05-24T02:08:22.480Z,15.55
2023-05-24T02:13:25.778Z,15.70
2023-05-24T02:18:35.050Z,15.78
2023-05-24T02:23:38.164Z,16.02
2023-05-24T02:28:41.774Z,16.08
2023-05-24T02:33:44.956Z,16.25
2023-05-24T02:38:48.097Z,16.34
2023-05-24T02:43:51.355Z,16.67
2023-05-24T02:48:54.414Z,16.89
2023-05-24T02:53:57.485Z,17.20
2023-05-24T02:59:00.558Z,17.28
2023-05-24T03:04:06.312Z,17.42
2023-05-24T03:09:09.542Z,17.74
2023-05-24T03:14:12.590Z,17.64
2023-05-24T03:19:18.445Z,17.65
2023-05-24T03:24:21.859Z,18.13
2023-05-24T03:29:25.807Z,18.92
2023-05-24T03:34:30.703Z,19.87
2023-05-24T03:39:33.930Z,20.25
2023-05-24T03:44:51.411Z,20.32
2023-05-24T03:49:54.343Z,20.65
2023-05-24T03:54:57.448Z,21.04
2023-05-24T04:00:01.173Z,20.91
2023-05-24T04:05:10.510Z,22.04
2023-05-24T04:10:14.793Z,23.14
2023-05-24T04:15:18.157Z,24.00
2023-05-24T04:20:25.975Z,25.05
2023-05-24T04:25:29.969Z,25.45
2023-05-24T04:30:33.354Z,26.03
2023-05-24T04:35:36.503Z,26.19
2023-05-24T04:40:40.658Z,26.75
2023-05-24T04:45:43.910Z,27.45
2023-05-24T04:50:47.909Z,27.31
2023-05-24T04:55:51.706Z,27.41
2023-05-24T05:00:54.808Z,27.89
2023-05-24T05:05:57.966Z,28.23
2023-05-24T05:11:01.486Z,27.75
2023-05-24T05:16:04.879Z,28.21
2023-05-24T05:21:08.322Z,28.85
2023-05-24T05:26:11.858Z,29.17
2023-05-24T05:31:14.875Z,28.61
2023-05-24T05:36:18.559Z,28.16
2023-05-24T05:41:22.554Z,29.44
2023-05-24T05:46:25.690Z,29.14
2023-05-24T05:51:28.690Z,29.22
2023-05-24T05:56:31.870Z,29.64
2023-05-24T06:01:34.961Z,29.72
2023-05-24T06:06:38.360Z,29.92
2023-05-24T06:11:45.105Z,29.69
2023-05-24T06:16:48.868Z,30.03
2023-05-24T06:21:52.462Z,29.95
2023-05-24T06:26:56.201Z,29.97
2023-05-24T06:31:59.426Z,30.32
2023-05-24T06:37:02.886Z,30.21
2023-05-24T06:42:06.100Z,30.25
2023-05-24T06:47:13.296Z,30.38
2023-05-24T06:52:16.547Z,30.36
2023-05-24T06:57:19.602Z,30.29
2023-05-24T07:02:26.860Z,30.17
2023-05-24T07:07:30.060Z,30.17
2023-05-24T07:12:33.135Z,30.54
2023-05-24T07:17:36.392Z,29.59
2023-05-24T07:22:39.675Z,29.88
2023-05-24T07:27:42.839Z,30.04
2023-05-24T07:32:46.381Z,29.81
2023-05-24T07:37:49.483Z,29.77
2023-05-24T07:42:52.592Z,29.98
2023-05-24T07:47:56.988Z,29.73
2023-05-24T07:53:00.155Z,29.67
2023-05-24T07:58:03.084Z,29.55
2023-05-24T08:03:06.970Z,29.15
2023-05-24T08:08:10.830Z,28.99
2023-05-24T08:13:15.309Z,29.04
2023-05-24T08:18:18.394Z,28.84
2023-05-24T08:23:22.218Z,29.15
2023-05-24T08:28:25.329Z,29.47
2023-05-24T08:33:29.457Z,29.86
2023-05-24T08:38:32.824Z,29.98
2023-05-24T08:43:36.449Z,30.02
2023-05-24T08:48:47.933Z,30.09
2023-05-24T08:53:52.203Z,30.33
2023-05-24T08:58:56.367Z,30.20
2023-05-24T09:04:01.011Z,29.91
2023-05-24T09:09:05.128Z,29.70
2023-05-24T09:14:08.551Z,29.91
2023-05-24T09:19:12.368Z,30.22
2023-05-24T09:24:16.785Z,30.17
2023-05-24T09:29:24.006Z,30.69
2023-05-24T09:34:27.128Z,30.44
2023-05-24T09:39:30.533Z,30.60
2023-05-24T09:44:33.562Z,30.57
2023-05-24T09:49:38.090Z,30.49
2023-05-24T09:54:42.110Z,30.73
2023-05-24T09:59:45.444Z,30.66
2023-05-24T10:04:48.852Z,30.48
2023-05-24T10:09:52.483Z,29.93
2023-05-24T10:14:57.942Z,29.52
2023-05-24T10:20:01.088Z,29.16
2023-05-24T10:25:11.129Z,29.11
2023-05-24T10:30:20.077Z,29.10
2023-05-24T10:35:24.691Z,28.84
2023-05-24T10:40:27.977Z,28.71
2023-05-24T10:45:36.243Z,28.61
2023-05-24T10:50:43.522Z,28.73
2023-05-24T10:56:10.002Z,28.68
2023-05-24T11:01:33.047Z,29.02
2023-05-24T11:06:49.949Z,29.52
2023-05-24T11:12:16.404Z,29.58
2023-05-24T11:17:23.919Z,29.77
2023-05-24T11:22:27.270Z,29.74
2023-05-24T11:27:32.319Z,29.62
2023-05-24T11:32:35.414Z,29.34
2023-05-24T11:37:46.150Z,29.13
2023-05-24T11:42:50.913Z,29.14
2023-05-24T11:47:56.466Z,28.89
2023-05-24T11:53:05.575Z,28.95
2023-05-24T11:58:23.603Z,28.99
2023-05-24T12:03:26.875Z,28.76
2023-05-24T12:08:30.061Z,29.03
2023-05-24T12:13:33.232Z,29.02
2023-05-24T12:18:38.590Z,29.11
2023-05-24T12:23:43.124Z,29.01
2023-05-24T12:28:48.710Z,28.87
2023-05-24T12:33:54.321Z,28.77
2023-05-24T12:38:59.056Z,28.66
2023-05-24T12:44:03.132Z,28.58
2023-05-24T12:49:06.293Z,28.55
2023-05-24T12:54:09.487Z,28.44
2023-05-24T12:59:13.138Z,28.49
2023-05-24T13:04:17.189Z,28.30
2023-05-24T13:09:26.026Z,28.17
2023-05-24T13:14:33.688Z,27.97
2023-05-24T13:19:36.949Z,28.04
2023-05-24T13:24:41.228Z,27.93
2023-05-24T13:29:56.610Z,27.85
2023-05-24T13:35:04.708Z,27.80
2023-05-24T13:40:28.115Z,27.64
2023-05-24T13:45:33.512Z,27.53
2023-05-24T13:50:37.789Z,27.49
2023-05-24T13:55:40.949Z,27.46
2023-05-24T14:00:44.506Z,27.42
2023-05-24T14:05:48.158Z,27.53
2023-05-24T14:10:52.110Z,27.46
2023-05-24T14:15:55.265Z,27.26
2023-05-24T14:20:58.447Z,27.11
2023-05-24T14:26:02.759Z,27.08
2023-05-24T14:31:05.812Z,26.83
2023-05-24T14:36:09.459Z,26.59
2023-05-24T14:41:13.336Z,26.50
2023-05-24T14:46:16.571Z,26.26
2023-05-24T14:51:19.824Z,26.17
2023-05-24T14:56:23.333Z,25.97
2023-05-24T15:01:26.804Z,25.88
2023-05-24T15:06:35.090Z,25.65
2023-05-24T15:11:38.232Z,25.44
2023-05-24T15:16:41.594Z,25.21
2023-05-24T15:21:44.668Z,25.07
2023-05-24T15:26:47.701Z,24.82
2023-05-24T15:31:50.763Z,24.55
2023-05-24T15:36:53.964Z,24.49
2023-05-24T15:41:57.339Z,24.23
2023-05-24T15:47:00.586Z,24.08
2023-05-24T15:52:04.973Z,23.95
2023-05-24T15:57:08.506Z,23.79
2023-05-24T16:02:11.648Z,23.65
2023-05-24T16:07:14.868Z,23.49
2023-05-24T16:12:18.585Z,23.36
2023-05-24T16:17:21.715Z,23.13
2023-05-24T16:22:24.915Z,22.98
2023-05-24T16:27:27.953Z,22.87
2023-05-24T16:32:31.153Z,22.64
2023-05-24T16:37:36.520Z,22.54
2023-05-24T16:42:39.479Z,22.44
2023-05-24T16:47:42.732Z,22.23
2023-05-24T16:52:45.962Z,22.18
2023-05-24T16:57:49.120Z,22.02
2023-05-24T17:02:52.293Z,21.81
2023-05-24T17:07:55.758Z,21.80
2023-05-24T17:12:59.006Z,21.64
2023-05-24T17:18:02.192Z,21.69
2023-05-24T17:23:05.501Z,21.56
2023-05-24T17:28:08.661Z,21.46
2023-05-24T17:33:11.954Z,21.34
2023-05-24T17:38:15.474Z,21.40
2023-05-24T17:43:18.690Z,21.42
2023-05-24T17:48:21.844Z,21.21
2023-05-24T17:53:31.594Z,21.30
2023-05-24T17:58:37.565Z,21.25
2023-05-24T18:03:42.014Z,21.06
2023-05-24T18:08:45.399Z,21.00
2023-05-24T18:13:48.513Z,21.05
2023-05-24T18:18:51.817Z,20.93
2023-05-24T18:23:54.977Z,20.88
2023-05-24T18:28:58.066Z,20.73
2023-05-24T18:34:01.915Z,20.77
2023-05-24T18:39:05.336Z,20.73
2023-05-24T18:44:08.489Z,20.69
2023-05-24T18:49:13.109Z,20.54
2023-05-24T18:54:17.833Z,20.44
2023-05-24T18:59:27.433Z,20.32
2023-05-24T19:04:30.653Z,20.04
2023-05-24T19:09:34.156Z,20.21
2023-05-24T19:14:37.895Z,19.95
2023-05-24T19:19:40.932Z,19.99
2023-05-24T19:24:45.395Z,19.91
2023-05-24T19:29:48.499Z,19.98
2023-05-24T19:34:52.478Z,20.01
2023-05-24T19:39:55.622Z,20.10
2023-05-24T19:44:58.730Z,20.17
2023-05-24T19:50:01.748Z,20.17
2023-05-24T19:55:06.910Z,20.15
2023-05-24T20:00:10.398Z,20.01
2023-05-24T20:05:17.685Z,19.69
2023-05-24T20:10:20.793Z,19.58
2023-05-24T20:15:28.370Z,19.63
2023-05-24T20:20:31.510Z,19.67
2023-05-24T20:25:34.665Z,19.40
2023-05-24T20:30:38.065Z,19.53
2023-05-24T20:35:41.260Z,19.40
2023-05-24T20:40:44.326Z,19.19
2023-05-24T20:45:47.924Z,19.21
2023-05-24T20:50:51.242Z,19.16
2023-05-24T20:55:54.506Z,19.22
2023-05-24T21:00:57.668Z,19.16
2023-05-24T21:06:00.778Z,19.39
2023-05-24T21:11:03.757Z,19.49
2023-05-24T21:16:06.846Z,19.68
2023-05-24T21:21:11.274Z,19.68
2023-05-24T21:26:14.364Z,19.71
2023-05-24T21:31:17.453Z,19.63
2023-05-24T21:36:20.530Z,19.73
2023-05-24T21:41:23.983Z,19.73
2023-05-24T21:46:29.462Z,19.71
2023-05-24T21:51:32.643Z,19.59
2023-05-24T21:56:35.697Z,19.58
2023-05-24T22:01:38.794Z,19.46
2023-05-24T22:06:42.980Z,19.41
2023-05-24T22:11:46.088Z,19.37
2023-05-24T22:16:49.635Z,19.27
2023-05-24T22:21:55.973Z,19.20
2023-05-24T22:27:01.551Z,19.26
2023-05-24T22:32:04.935Z,19.12
2023-05-24T22:37:08.061Z,19.05
2023-05-24T22:42:11.391Z,18.92
2023-05-24T22:47:15.932Z,18.87
2023-05-24T22:52:20.306Z,18.91
2023-05-24T22:57:23.395Z,18.92
2023-05-24T23:02:27.864Z,18.89
2023-05-24T23:07:30.940Z,18.85
2023-05-24T23:12:34.595Z,18.84
2023-05-24T23:17:37.865Z,18.82
2023-05-24T23:22:40.934Z,18.78
2023-05-24T23:27:43.992Z,18.82
2023-05-24T23:32:46.993Z,18.84
2023-05-24T23:37:50.032Z,18.70
2023-05-24T23:42:53.233Z,18.79
2023-05-24T23:47:56.408Z,18.76
2023-05-24T23:52:59.487Z,18.69
2023-05-24T23:58:02.969Z,18.61
